Time;durP1;ratioP1;P1;durP2;ratioP2;P2;SDS_P1;SDS_P2;PMS_P1;PMS_P2;Temp;Humidity;BMP_temperature;BMP_pressure;BME280_temperature;BME280_humidity;BME280_pressure;Samples;Min_cycle;Max_cycle;Signal;HPM_P1;HPM_P2
2020/12/05 00:01:50;;;;;;;21.67;12.48;;;;;;;6.61;60.64;99160.44;5094365;28;20044;-72
2020/12/05 00:04:16;;;;;;;28.10;15.57;;;;;;;6.61;60.47;99155.25;5094776;28;20078;-71
2020/12/05 00:06:42;;;;;;;19.80;9.32;;;;;;;6.56;60.48;99154.59;5094454;28;20475;-72
2020/12/05 00:09:09;;;;;;;27.67;13.98;;;;;;;6.53;60.70;99162.53;5093889;28;20478;-73
2020/12/05 00:11:35;;;;;;;23.33;12.63;;;;;;;6.53;60.63;99159.91;5094210;28;20051;-72
2020/12/05 00:14:01;;;;;;;29.73;15.75;;;;;;;6.51;60.63;99161.72;5094438;28;20523;-73
2020/12/05 00:16:27;;;;;;;29.40;16.42;;;;;;;6.53;60.86;99162.53;5094252;28;20037;-73
2020/12/05 00:18:54;;;;;;;26.63;15.20;;;;;;;6.53;60.82;99159.91;5094503;28;20467;-73
2020/12/05 00:21:21;;;;;;;23.73;13.80;;;;;;;6.53;60.74;99165.13;5086044;28;20051;-72
2020/12/05 00:23:47;;;;;;;24.85;14.05;;;;;;;6.53;60.76;99167.72;5073877;28;20049;-73
2020/12/05 00:26:14;;;;;;;20.85;11.00;;;;;;;6.54;60.69;99167.66;5089451;28;20044;-72
2020/12/05 00:28:41;;;;;;;26.88;14.05;;;;;;;6.54;60.87;99170.28;5094100;28;20447;-72
2020/12/05 00:31:07;;;;;;;27.42;14.93;;;;;;;6.54;60.86;99169.44;5093989;28;20391;-73
2020/12/05 00:33:33;;;;;;;28.73;14.63;;;;;;;6.56;60.74;99165.00;5094874;28;20555;-72
2020/12/05 00:36:00;;;;;;;21.77;11.50;;;;;;;6.54;60.91;99161.59;5094830;28;20080;-72
2020/12/05 00:38:27;;;;;;;25.10;12.52;;;;;;;6.54;61.03;99172.03;5094881;28;20081;-73
2020/12/05 00:40:53;;;;;;;20.88;10.82;;;;;;;6.55;61.09;99176.31;5100954;28;20105;-73
2020/12/05 00:43:19;;;;;;;25.65;13.73;;;;;;;6.56;60.87;99176.25;5098402;28;20076;-73
2020/12/05 00:45:45;;;;;;;21.67;12.27;;;;;;;6.59;60.74;99185.72;5094969;28;20093;-71
2020/12/05 00:48:11;;;;;;;20.38;12.40;;;;;;;6.62;60.97;99186.44;5094809;28;20406;-72
2020/12/05 00:50:37;;;;;;;27.48;14.35;;;;;;;6.66;61.11;99187.16;5094251;28;20056;-73
2020/12/05 00:53:04;;;;;;;18.35;9.43;;;;;;;6.67;60.78;99184.53;5095325;28;20083;-73
2020/12/05 00:55:31;;;;;;;20.08;12.60;;;;;;;6.69;60.72;99197.47;5094652;28;20040;-73
2020/12/05 00:57:57;;;;;;;26.17;13.57;;;;;;;6.71;60.64;99186.09;5094515;28;20075;-73
2020/12/05 01:00:23;;;;;;;20.13;11.05;;;;;;;6.75;60.78;99191.16;5094791;28;20083;-72
2020/12/05 01:02:49;;;;;;;22.00;11.45;;;;;;;6.75;60.78;99185.97;5094779;28;20086;-71
2020/12/05 01:05:16;;;;;;;23.02;11.77;;;;;;;6.76;60.61;99191.09;5094528;28;20598;-72
2020/12/05 01:07:42;;;;;;;22.63;11.60;;;;;;;6.75;60.70;99189.41;5094808;28;20113;-72
2020/12/05 01:10:09;;;;;;;24.20;12.55;;;;;;;6.76;61.16;99183.28;5094093;28;20074;-72
2020/12/05 01:12:35;;;;;;;21.40;12.10;;;;;;;6.76;60.93;99183.28;5094074;28;20113;-72
2020/12/05 01:15:02;;;;;;;22.67;12.38;;;;;;;6.77;60.83;99179.78;5094102;28;20182;-72
2020/12/05 01:17:32;;;;;;;22.88;13.65;;;;;;;6.76;60.83;99188.50;5094201;28;20101;-73
2020/12/05 01:19:58;;;;;;;25.55;13.43;;;;;;;6.79;60.77;99183.16;5094567;28;20044;-73
2020/12/05 01:22:24;;;;;;;25.23;12.55;;;;;;;6.80;60.84;99184.84;5093952;28;20098;-72
2020/12/05 01:24:50;;;;;;;23.65;13.00;;;;;;;6.78;60.86;99171.06;5093903;28;20087;-73
2020/12/05 01:27:18;;;;;;;21.60;11.40;;;;;;;6.77;60.91;99169.34;5094256;28;20132;-72
2020/12/05 01:29:44;;;;;;;16.58;10.27;;;;;;;6.78;60.95;99176.25;5093775;28;20036;-71
2020/12/05 01:32:10;;;;;;;20.45;12.48;;;;;;;6.75;61.02;99171.19;5093861;28;20102;-71
2020/12/05 01:34:37;;;;;;;23.73;12.23;;;;;;;6.76;60.97;99198.91;5093495;28;20056;-71
2020/12/05 01:37:03;;;;;;;22.15;11.15;;;;;;;6.79;60.67;99162.31;5093684;28;20079;-73
2020/12/05 01:39:29;;;;;;;22.73;11.10;;;;;;;6.82;60.94;99159.59;5093710;28;20497;-73
2020/12/05 01:41:55;;;;;;;18.35;9.48;;;;;;;6.84;60.66;99155.16;5093983;28;20516;-73
2020/12/05 01:44:22;;;;;;;20.95;10.90;;;;;;;6.85;60.84;99153.41;5093997;28;20541;-71
2020/12/05 01:46:49;;;;;;;20.90;9.10;;;;;;;6.87;60.88;99160.28;5095255;28;20110;-71
2020/12/05 01:49:17;;;;;;;21.33;11.30;;;;;;;6.88;60.56;99156.75;5097940;28;20503;-71
2020/12/05 01:51:43;;;;;;;13.55;8.35;;;;;;;6.89;60.42;99153.25;5093817;28;20044;-71
2020/12/05 01:54:10;;;;;;;21.27;13.02;;;;;;;6.89;60.49;99155.84;5093720;28;20098;-71
2020/12/05 01:56:37;;;;;;;15.68;8.25;;;;;;;6.89;60.62;99153.25;5092724;28;20071;-72
2020/12/05 01:59:03;;;;;;;17.92;9.75;;;;;;;6.89;60.73;99155.84;5093219;28;20052;-72
2020/12/05 02:01:30;;;;;;;19.55;10.15;;;;;;;6.90;60.69;99149.72;5092882;28;20483;-72
2020/12/05 02:03:58;;;;;;;19.77;11.13;;;;;;;6.91;60.77;99146.22;5093651;28;20050;-72
2020/12/05 02:06:38;;;;;;;22.02;11.50;;;;;;;6.91;60.89;99143.59;5093352;28;20056;-71
2020/12/05 02:09:14;;;;;;;18.42;9.13;;;;;;;6.93;60.97;99153.97;5093654;28;20127;-73
2020/12/05 02:11:45;;;;;;;22.63;11.27;;;;;;;6.94;61.00;99140.88;5093109;28;20047;-72
2020/12/05 02:14:13;;;;;;;17.55;9.48;;;;;;;7.00;60.81;99158.84;5093645;28;20078;-72
2020/12/05 02:16:41;;;;;;;21.58;11.10;;;;;;;7.03;61.03;99135.25;5092928;28;20078;-72
2020/12/05 02:19:12;;;;;;;18.30;10.20;;;;;;;7.11;60.76;99136.72;5093303;28;20123;-72
2020/12/05 02:21:41;;;;;;;18.23;10.10;;;;;;;7.15;60.58;99127.88;5092207;28;20076;-72
2020/12/05 02:24:10;;;;;;;20.95;10.73;;;;;;;7.18;60.57;99131.19;5093036;28;20128;-72
2020/12/05 02:26:36;;;;;;;16.60;9.35;;;;;;;7.23;60.52;99133.59;5092239;28;20527;-71
2020/12/05 02:29:03;;;;;;;21.15;8.52;;;;;;;7.31;60.31;99131.53;5092911;28;20040;-71
2020/12/05 02:31:29;;;;;;;21.45;9.65;;;;;;;7.35;60.33;99127.88;5095487;28;20064;-73
2020/12/05 02:33:55;;;;;;;16.23;8.85;;;;;;;7.42;60.21;99121.47;5097295;28;20071;-71
2020/12/05 02:36:21;;;;;;;20.73;11.30;;;;;;;7.48;60.10;99134.22;5092548;28;20105;-70
2020/12/05 02:39:00;;;;;;;13.95;7.63;;;;;;;7.49;60.02;99135.91;5092701;28;20052;-73
2020/12/05 02:41:28;;;;;;;15.93;9.15;;;;;;;7.51;60.16;99136.72;5092795;28;20056;-71
2020/12/05 02:43:54;;;;;;;18.98;9.45;;;;;;;7.54;60.00;99120.94;5092693;28;20087;-73
2020/12/05 02:46:21;;;;;;;14.07;7.97;;;;;;;7.58;59.86;99145.97;5092612;28;20125;-71
2020/12/05 02:48:47;;;;;;;15.57;7.85;;;;;;;7.62;59.59;99142.31;5092864;28;20044;-72
2020/12/05 02:51:13;;;;;;;18.02;9.02;;;;;;;7.65;59.79;99146.53;5092579;28;20132;-71
2020/12/05 02:53:40;;;;;;;16.30;7.45;;;;;;;7.68;59.61;99143.78;5092409;28;20079;-74
2020/12/05 02:56:06;;;;;;;14.32;8.45;;;;;;;7.70;59.82;99141.09;5092388;28;20083;-73
2020/12/05 02:58:33;;;;;;;18.48;10.38;;;;;;;7.74;59.75;99124.44;5091803;28;20083;-72
2020/12/05 03:00:59;;;;;;;21.35;10.23;;;;;;;7.78;59.43;99134.66;5092401;28;20087;-72
2020/12/05 03:03:25;;;;;;;16.88;9.32;;;;;;;7.79;59.56;99141.56;5092565;28;20044;-72
2020/12/05 03:05:51;;;;;;;13.35;8.20;;;;;;;7.83;59.35;99137.03;5091707;28;20083;-72
2020/12/05 03:08:17;;;;;;;17.92;9.38;;;;;;;7.84;59.46;99149.19;5092440;28;20048;-72
2020/12/05 03:10:43;;;;;;;15.32;8.25;;;;;;;7.87;59.25;99143.81;5091868;28;20474;-71
2020/12/05 03:13:10;;;;;;;9.57;6.20;;;;;;;7.89;59.18;99149.81;5091946;28;20106;-72
2020/12/05 03:15:37;;;;;;;19.23;10.02;;;;;;;7.89;59.25;99141.97;5092080;28;20193;-72
2020/12/05 03:18:03;;;;;;;11.10;7.72;;;;;;;7.91;59.08;99148.84;5092123;28;20072;-73
2020/12/05 03:20:29;;;;;;;13.73;7.95;;;;;;;7.93;59.07;99146.19;5091341;28;20059;-73
2020/12/05 03:22:55;;;;;;;13.10;7.85;;;;;;;7.94;59.01;99150.47;5092095;28;20119;-73
2020/12/05 03:25:21;;;;;;;15.15;9.50;;;;;;;7.95;59.13;99153.00;5091946;28;20094;-71
2020/12/05 03:27:47;;;;;;;18.42;9.55;;;;;;;7.97;59.13;99155.56;5092064;28;20048;-71
2020/12/05 03:30:14;;;;;;;15.30;8.73;;;;;;;7.99;58.97;99158.94;5091824;28;20101;-72
2020/12/05 03:32:42;;;;;;;15.02;8.90;;;;;;;7.97;58.92;99155.56;5091796;28;20091;-72
2020/12/05 03:35:08;;;;;;;19.25;11.00;;;;;;;7.98;59.06;99170.28;5091545;28;20044;-72
2020/12/05 03:37:34;;;;;;;17.77;8.88;;;;;;;7.99;59.24;99161.53;5091839;28;20078;-72
2020/12/05 03:40:01;;;;;;;14.82;9.43;;;;;;;8.01;58.93;99154.50;5091637;28;20047;-73
2020/12/05 03:42:27;;;;;;;14.35;7.70;;;;;;;7.99;59.04;99158.94;5091713;28;20411;-72
2020/12/05 03:44:53;;;;;;;18.25;8.13;;;;;;;7.98;59.03;99157.25;5091635;28;20506;-71
2020/12/05 03:47:19;;;;;;;14.40;7.93;;;;;;;7.96;59.16;99146.03;5091592;28;20080;-72
2020/12/05 03:49:47;;;;;;;11.77;7.20;;;;;;;7.93;59.22;99146.19;5091143;28;20070;-72
2020/12/05 03:52:13;;;;;;;15.68;7.90;;;;;;;7.91;59.20;99145.38;5092067;28;20059;-74
2020/12/05 03:54:39;;;;;;;15.68;9.30;;;;;;;7.88;59.19;99135.91;5091490;28;20098;-75
2020/12/05 03:57:05;;;;;;;16.33;9.57;;;;;;;7.85;59.29;99143.03;5091290;28;20048;-75
2020/12/05 03:59:31;;;;;;;13.05;8.30;;;;;;;7.82;59.40;99143.19;5090919;28;20078;-74
2020/12/05 04:01:57;;;;;;;12.65;7.97;;;;;;;7.83;59.32;99155.31;5091592;28;20410;-75
2020/12/05 04:04:24;;;;;;;13.75;6.22;;;;;;;7.82;59.22;99151.84;5091288;28;20087;-74
2020/12/05 04:06:51;;;;;;;12.60;7.13;;;;;;;7.84;59.28;99164.84;5091624;28;20083;-74
2020/12/05 04:09:17;;;;;;;11.82;6.53;;;;;;;7.85;59.41;99156.09;5091372;28;20421;-76
2020/12/05 04:11:43;;;;;;;14.02;9.00;;;;;;;7.82;59.36;99153.63;5090871;28;20086;-74
2020/12/05 04:14:11;;;;;;;20.15;8.85;;;;;;;7.82;59.45;99151.00;5091752;28;20086;-75
2020/12/05 04:16:38;;;;;;;14.23;7.65;;;;;;;7.82;59.40;99145.78;5090755;28;20084;-75
2020/12/05 04:19:04;;;;;;;17.95;9.63;;;;;;;7.80;59.53;99155.44;5091328;28;20117;-74
2020/12/05 04:21:30;;;;;;;18.85;9.90;;;;;;;7.81;59.48;99149.31;5082234;28;20057;-75
2020/12/05 04:23:57;;;;;;;16.13;10.10;;;;;;;7.83;59.51;99150.09;5071596;28;20159;-75
2020/12/05 04:26:24;;;;;;;11.65;6.72;;;;;;;7.86;59.40;99157.78;5087367;28;20079;-75
2020/12/05 04:28:50;;;;;;;15.20;7.90;;;;;;;7.87;59.35;99152.50;5091451;28;20076;-75
2020/12/05 04:31:17;;;;;;;11.18;7.28;;;;;;;7.89;59.38;99155.03;5090985;28;20052;-75
2020/12/05 04:33:43;;;;;;;13.05;8.07;;;;;;;7.91;59.21;99156.69;5092481;28;20048;-74
2020/12/05 04:36:10;;;;;;;16.17;9.90;;;;;;;7.91;59.44;99167.13;5091224;28;20076;-73
2020/12/05 04:38:36;;;;;;;13.98;7.13;;;;;;;7.91;59.28;99153.19;5091205;28;20083;-74
2020/12/05 04:41:03;;;;;;;15.85;8.95;;;;;;;7.90;59.25;99147.13;5092084;28;20600;-75
2020/12/05 04:43:30;;;;;;;11.05;6.35;;;;;;;7.91;59.40;99161.03;5092028;28;20135;-75
2020/12/05 04:45:57;;;;;;;14.38;7.35;;;;;;;7.92;59.38;99157.53;5094827;28;20084;-75
2020/12/05 04:48:24;;;;;;;16.63;9.65;;;;;;;7.94;59.38;99163.53;5094557;28;20572;-73
2020/12/05 04:50:53;;;;;;;12.43;7.82;;;;;;;7.94;59.46;99153.09;5094382;28;20075;-74
2020/12/05 04:53:22;;;;;;;13.95;8.88;;;;;;;7.97;59.23;99152.09;5095028;28;20090;-75
2020/12/05 04:55:49;;;;;;;15.57;8.93;;;;;;;7.97;59.24;99152.09;5094587;28;20090;-74
2020/12/05 04:58:18;;;;;;;18.40;9.35;;;;;;;7.95;59.37;99153.00;5094307;28;20388;-75
2020/12/05 05:00:45;;;;;;;14.45;9.57;;;;;;;7.98;59.23;99156.41;5094134;28;20131;-74
2020/12/05 05:03:16;;;;;;;14.05;8.20;;;;;;;7.99;59.42;99152.88;5094653;28;20048;-74
2020/12/05 05:05:42;;;;;;;11.90;6.72;;;;;;;8.00;59.43;99158.03;5094187;28;20045;-75
2020/12/05 05:08:12;;;;;;;17.52;9.13;;;;;;;8.00;59.51;99155.41;5094402;28;20495;-73
2020/12/05 05:10:38;;;;;;;14.85;8.48;;;;;;;8.02;59.41;99157.94;5094263;28;20132;-73
2020/12/05 05:13:12;;;;;;;18.38;9.88;;;;;;;8.03;59.31;99152.66;5079194;28;20060;-74
2020/12/05 05:15:40;;;;;;;11.13;5.78;;;;;;;8.05;59.24;99163.03;5084422;28;20459;-74
2020/12/05 05:18:07;;;;;;;12.15;7.75;;;;;;;8.06;59.37;99152.50;5094177;28;20084;-75
2020/12/05 05:20:37;;;;;;;13.43;7.15;;;;;;;8.07;59.40;99159.44;5093783;28;20044;-75
2020/12/05 05:23:12;;;;;;;17.48;9.77;;;;;;;8.06;59.34;99165.56;5094212;28;20075;-75
2020/12/05 05:25:50;;;;;;;15.25;8.25;;;;;;;8.06;59.48;99165.56;5094110;28;20050;-74
2020/12/05 05:28:20;;;;;;;17.70;9.85;;;;;;;8.06;59.38;99165.56;5094005;28;20097;-73
2020/12/05 05:31:01;;;;;;;15.87;10.20;;;;;;;8.05;59.59;99174.31;5094081;28;20048;-74
2020/12/05 05:33:37;;;;;;;12.43;7.60;;;;;;;8.04;59.50;99177.84;5093746;28;20098;-73
2020/12/05 05:36:14;;;;;;;17.95;9.82;;;;;;;8.01;59.54;99175.38;5093923;28;20475;-74
2020/12/05 05:38:42;;;;;;;16.88;9.02;;;;;;;8.02;59.53;99182.28;5093850;28;20048;-73
2020/12/05 05:41:15;;;;;;;17.45;9.25;;;;;;;8.00;59.62;99193.72;5093992;28;20059;-74
2020/12/05 05:43:52;;;;;;;15.90;9.15;;;;;;;7.97;59.47;99179.03;5095434;28;20309;-74
2020/12/05 05:46:26;;;;;;;13.68;8.32;;;;;;;7.95;59.88;99178.25;5093784;28;20571;-76
2020/12/05 05:48:53;;;;;;;15.35;9.30;;;;;;;7.95;59.52;99188.69;5093793;28;20079;-75
2020/12/05 05:51:36;;;;;;;12.07;7.38;;;;;;;7.94;59.52;99181.78;5093558;28;20120;-76
2020/12/05 05:54:10;;;;;;;11.07;7.30;;;;;;;7.94;59.48;99173.97;5093465;28;20050;-74
2020/12/05 05:56:36;;;;;;;17.20;9.85;;;;;;;7.95;59.49;99180.88;5091958;28;20106;-74
2020/12/05 05:59:05;;;;;;;10.18;6.95;;;;;;;7.97;59.43;99184.25;5093399;28;20091;-74
2020/12/05 06:01:36;;;;;;;12.77;8.02;;;;;;;7.99;59.40;99179.81;5093531;28;20082;-74
2020/12/05 06:04:04;;;;;;;12.77;7.75;;;;;;;8.04;59.48;99195.25;5093658;28;20097;-74
2020/12/05 06:06:33;;;;;;;17.85;9.48;;;;;;;8.04;59.29;99196.09;5092986;28;20131;-74
2020/12/05 06:09:02;;;;;;;16.50;9.60;;;;;;;8.07;59.09;99190.75;5093506;28;20075;-74
2020/12/05 06:11:31;;;;;;;15.10;7.38;;;;;;;8.08;59.20;99188.97;5093274;28;20076;-74
2020/12/05 06:14:00;;;;;;;17.45;9.75;;;;;;;8.09;59.25;99191.53;5093047;28;20087;-74
2020/12/05 06:16:27;;;;;;;11.07;6.55;;;;;;;8.13;59.17;99194.88;5093149;28;20044;-74
2020/12/05 06:18:57;;;;;;;14.13;7.50;;;;;;;8.12;59.16;99212.28;5093182;28;20044;-73
2020/12/05 06:21:30;;;;;;;15.05;9.80;;;;;;;8.17;58.95;99210.31;5093285;28;20075;-74
2020/12/05 06:24:05;;;;;;;18.88;10.77;;;;;;;8.21;58.76;99209.25;5093261;28;20044;-73
2020/12/05 06:26:34;;;;;;;16.00;7.75;;;;;;;8.23;58.87;99198.75;5092560;28;20498;-74
2020/12/05 06:29:01;;;;;;;16.05;8.60;;;;;;;8.24;58.72;99203.03;5093144;28;20068;-75
2020/12/05 06:31:41;;;;;;;20.60;12.50;;;;;;;8.25;58.73;99207.34;5092967;28;20534;-76
2020/12/05 06:34:09;;;;;;;13.48;7.75;;;;;;;8.26;58.73;99207.28;5092915;28;20445;-76
2020/12/05 06:36:40;;;;;;;16.95;10.50;;;;;;;8.29;58.64;99223.72;5092639;28;20078;-75
2020/12/05 06:39:24;;;;;;;13.50;7.47;;;;;;;8.30;58.62;99225.41;5092752;28;20080;-74
2020/12/05 06:41:52;;;;;;;13.48;7.50;;;;;;;8.32;58.65;99224.41;5072115;28;20098;-75
2020/12/05 06:44:22;;;;;;;16.95;9.50;;;;;;;8.32;58.71;99231.41;5072216;28;20141;-74
2020/12/05 06:46:53;;;;;;;18.27;10.20;;;;;;;8.34;58.72;99227.03;5072542;28;20084;-74
2020/12/05 06:49:54;;;;;;;14.15;9.38;;;;;;;8.35;58.74;99236.56;5072496;28;20190;-74
2020/12/05 06:52:40;;;;;;;15.45;8.80;;;;;;;8.32;58.64;99241.84;5072337;28;20102;-76
2020/12/05 06:55:29;;;;;;;13.60;8.93;;;;;;;8.30;58.65;99235.84;5088138;28;20043;-74
2020/12/05 06:58:04;;;;;;;16.08;8.73;;;;;;;8.31;58.70;99248.00;5092127;28;20051;-77
2020/12/05 07:00:33;;;;;;;15.57;8.10;;;;;;;8.30;58.75;99254.13;5091619;28;20075;-76
2020/12/05 07:03:01;;;;;;;19.20;11.27;;;;;;;8.29;58.78;99255.91;5091955;28;20083;-76
2020/12/05 07:05:39;;;;;;;18.95;11.07;;;;;;;8.30;58.70;99264.56;5088783;28;20052;-76
2020/12/05 07:08:23;;;;;;;15.02;9.23;;;;;;;8.29;58.79;99268.09;5089723;28;20040;-74
2020/12/05 07:10:53;;;;;;;17.00;9.55;;;;;;;8.29;58.77;99266.34;5089700;28;20051;-75
2020/12/05 07:13:22;;;;;;;11.73;7.38;;;;;;;8.29;58.79;99278.56;5091752;28;20068;-73
2020/12/05 07:15:48;;;;;;;17.52;10.70;;;;;;;8.24;58.87;99284.84;5085474;28;20040;-74
2020/12/05 07:18:26;;;;;;;9.30;5.90;;;;;;;8.24;58.94;99290.06;5072173;28;20127;-74
2020/12/05 07:20:55;;;;;;;16.40;8.90;;;;;;;8.24;58.95;99294.44;5087073;28;20075;-77
2020/12/05 07:23:21;;;;;;;16.60;9.77;;;;;;;8.26;59.00;99303.88;5094113;28;20070;-77
2020/12/05 07:25:48;;;;;;;17.95;9.38;;;;;;;8.25;59.05;99310.03;5087697;28;22239;-77
2020/12/05 07:28:14;;;;;;;13.43;8.55;;;;;;;8.28;58.89;99306.44;5092636;28;20127;-77
2020/12/05 07:30:40;;;;;;;15.10;8.25;;;;;;;8.31;58.91;99321.09;5092121;28;20143;-77
2020/12/05 07:33:08;;;;;;;15.75;8.90;;;;;;;8.30;58.97;99320.25;5091848;28;20511;-78
2020/12/05 07:35:35;;;;;;;8.43;5.30;;;;;;;8.31;58.96;99303.69;5071614;28;20280;-78
2020/12/05 07:38:11;;;;;;;12.77;7.30;;;;;;;8.31;59.02;99298.44;5067981;28;20136;-78
2020/12/05 07:40:37;;;;;;;17.63;8.77;;;;;;;8.35;58.86;99312.28;5079813;28;20044;-80
2020/12/05 07:43:04;;;;;;;16.58;8.82;;;;;;;8.36;58.67;99307.00;5090127;28;20411;-79
2020/12/05 07:45:30;;;;;;;15.77;9.68;;;;;;;8.36;58.57;99311.38;5089869;28;20070;-78
2020/12/05 07:47:57;;;;;;;17.17;10.07;;;;;;;8.37;58.87;99305.22;5090922;28;20040;-76
2020/12/05 07:50:32;;;;;;;13.85;7.82;;;;;;;8.37;58.76;99307.84;5071567;28;20045;-75
2020/12/05 07:52:58;;;;;;;10.27;6.75;;;;;;;8.36;58.91;99313.97;5072194;28;20093;-80
2020/12/05 07:55:29;;;;;;;17.38;10.10;;;;;;;8.36;59.08;99327.88;5071867;28;20100;-78
2020/12/05 07:57:55;;;;;;;11.67;7.30;;;;;;;8.39;58.68;99324.28;5071366;28;20122;-76
2020/12/05 08:00:22;;;;;;;18.52;10.30;;;;;;;8.37;58.97;99336.56;5072647;28;20521;-75
2020/12/05 08:03:08;;;;;;;18.23;9.20;;;;;;;8.36;58.88;99340.09;5072955;28;20622;-78
2020/12/05 08:05:46;;;;;;;17.52;10.48;;;;;;;8.33;58.83;99334.94;5072182;28;20079;-76
2020/12/05 08:08:16;;;;;;;19.77;11.13;;;;;;;8.30;58.91;99337.69;5073422;28;20079;-79
2020/12/05 08:10:43;;;;;;;18.95;10.82;;;;;;;8.33;58.93;99341.03;5073684;28;20472;-80
2020/12/05 08:13:29;;;;;;;20.35;11.35;;;;;;;8.33;58.88;99350.63;5072326;28;20504;-75
2020/12/05 08:16:03;;;;;;;21.42;11.43;;;;;;;8.24;59.12;99339.66;5072271;28;20052;-76
2020/12/05 08:18:30;;;;;;;17.73;10.43;;;;;;;8.23;58.89;99355.41;5072260;28;20048;-76
2020/12/05 08:20:57;;;;;;;16.38;9.10;;;;;;;8.19;59.06;99338.19;5075962;28;20510;-77
2020/12/05 08:23:29;;;;;;;11.25;7.88;;;;;;;8.16;58.93;99349.59;5075474;28;20052;-78
2020/12/05 08:26:07;;;;;;;17.35;9.43;;;;;;;8.11;59.09;99335.88;5063034;28;20110;-77
2020/12/05 08:28:39;;;;;;;16.05;9.10;;;;;;;8.10;59.36;99352.44;5068050;28;20133;-77
2020/12/05 08:31:06;;;;;;;18.45;9.30;;;;;;;8.14;59.12;99371.47;5069044;28;20052;-77
2020/12/05 08:33:41;;;;;;;8.90;6.38;;;;;;;8.13;59.08;99357.56;4970107;28;20053;-78
2020/12/05 08:36:16;;;;;;;17.50;9.07;;;;;;;8.12;59.32;99355.88;5093929;28;20570;-73
2020/12/05 08:38:43;;;;;;;19.52;10.07;;;;;;;8.14;59.21;99351.44;5094642;28;20123;-74
2020/12/05 08:41:10;;;;;;;13.43;7.90;;;;;;;8.19;59.22;99353.84;5094350;28;20072;-74
2020/12/05 08:43:36;;;;;;;14.88;8.30;;;;;;;8.24;59.17;99359.72;4999476;27;20067;-76
2020/12/05 08:46:15;;;;;;;17.50;9.55;;;;;;;8.27;59.26;99363.03;5093537;28;20396;-71
2020/12/05 08:48:41;;;;;;;16.30;10.02;;;;;;;8.43;58.97;99358.03;5094734;28;20090;-74
2020/12/05 08:51:08;;;;;;;10.98;6.68;;;;;;;8.64;58.51;99371.06;4910269;27;20063;-76
2020/12/05 08:53:34;;;;;;;16.75;10.85;;;;;;;8.77;58.31;99373.06;5093301;28;20126;-75
2020/12/05 08:56:01;;;;;;;17.63;11.15;;;;;;;9.13;57.48;99374.91;5094358;28;20410;-75
2020/12/05 08:58:44;;;;;;;18.55;10.70;;;;;;;9.32;56.91;99370.50;5094355;28;20056;-75
2020/12/05 09:01:10;;;;;;;19.50;10.52;;;;;;;9.45;56.73;99381.25;5093908;28;20068;-73
2020/12/05 09:03:37;;;;;;;10.95;6.85;;;;;;;9.41;56.37;99364.88;5093899;28;20048;-75
2020/12/05 09:06:04;;;;;;;17.35;10.80;;;;;;;9.47;56.14;99359.34;5093680;28;20048;-74
2020/12/05 09:08:30;;;;;;;20.98;11.73;;;;;;;9.72;55.64;99363.38;5093390;28;20048;-74
2020/12/05 09:10:57;;;;;;;19.38;11.90;;;;;;;9.89;55.13;99381.72;5092471;28;20504;-74
2020/12/05 09:13:24;;;;;;;20.85;11.70;;;;;;;9.86;55.34;99371.41;5093624;28;20485;-74
2020/12/05 09:16:02;;;;;;;23.83;12.57;;;;;;;9.89;55.46;99370.41;5093998;28;20052;-74
2020/12/05 09:18:40;;;;;;;11.43;7.22;;;;;;;9.82;54.91;99364.63;5041291;27;20056;-73
2020/12/05 09:21:12;;;;;;;19.15;11.57;;;;;;;9.66;55.47;99376.78;4961220;28;20054;-74
2020/12/05 09:23:38;;;;;;;24.98;15.07;;;;;;;9.61;55.59;99386.63;5094159;28;20048;-73
2020/12/05 09:26:06;;;;;;;16.90;10.00;;;;;;;9.55;55.70;99381.66;5093940;28;20064;-76
2020/12/05 09:28:33;;;;;;;26.25;13.63;;;;;;;9.64;55.76;99381.22;5093904;28;20504;-75
2020/12/05 09:31:03;;;;;;;19.33;10.57;;;;;;;9.86;55.19;99381.88;5094611;28;20047;-78
2020/12/05 09:33:30;;;;;;;17.15;9.77;;;;;;;9.81;55.29;99391.72;5095439;28;20044;-74
2020/12/05 09:35:56;;;;;;;15.52;7.85;;;;;;;9.83;55.33;99395.13;5094497;28;20087;-75
2020/12/05 09:38:22;;;;;;;15.82;10.57;;;;;;;9.95;54.98;99398.91;5094332;28;20088;-75
2020/12/05 09:40:48;;;;;;;17.85;9.20;;;;;;;9.93;55.14;99392.88;5072102;27;20048;-75
2020/12/05 09:43:15;;;;;;;16.63;9.13;;;;;;;9.88;55.26;99392.28;5014647;27;20048;-75
2020/12/05 09:45:41;;;;;;;18.73;11.65;;;;;;;9.87;55.18;99394.03;5093006;28;20076;-74
2020/12/05 09:48:08;;;;;;;18.27;11.32;;;;;;;9.89;55.50;99394.81;5093486;28;20484;-75
2020/12/05 09:50:34;;;;;;;19.02;10.90;;;;;;;10.04;54.99;99396.69;5093170;28;20083;-70
2020/12/05 09:53:00;;;;;;;16.92;11.82;;;;;;;10.08;55.09;99400.84;5092864;28;20048;-68
2020/12/05 09:55:27;;;;;;;18.92;11.98;;;;;;;10.28;54.93;99393.78;5093238;28;20062;-71
2020/12/05 09:57:53;;;;;;;16.55;9.50;;;;;;;10.63;54.40;99410.34;5092901;28;20131;-69
2020/12/05 10:00:19;;;;;;;19.88;11.70;;;;;;;10.91;53.77;99413.19;5092568;28;20495;-69
2020/12/05 10:02:46;;;;;;;17.67;11.05;;;;;;;11.26;53.25;99411.31;5093135;28;20055;-71
2020/12/05 10:05:13;;;;;;;19.90;11.95;;;;;;;11.46;52.56;99422.50;5093365;28;20097;-68
2020/12/05 10:07:39;;;;;;;20.80;11.30;;;;;;;11.38;52.11;99425.53;5093379;28;20086;-68
2020/12/05 10:10:10;;;;;;;19.60;12.05;;;;;;;11.44;52.00;99425.19;5093487;28;20040;-69
2020/12/05 10:12:44;;;;;;;10.15;6.00;;;;;;;11.67;51.78;99431.81;5093437;28;20044;-69
2020/12/05 10:15:11;;;;;;;16.48;10.43;;;;;;;11.76;51.47;99440.94;5093227;28;20067;-77
2020/12/05 10:17:37;;;;;;;17.90;8.57;;;;;;;11.83;51.21;99432.66;5092932;28;20132;-70
2020/12/05 10:20:04;;;;;;;15.80;9.80;;;;;;;11.88;50.80;99428.00;5093102;28;20312;-68
2020/12/05 10:22:31;;;;;;;18.17;11.98;;;;;;;12.18;50.72;99428.03;5093031;28;20074;-66
2020/12/05 10:24:57;;;;;;;21.23;11.02;;;;;;;12.41;50.55;99429.31;5039992;28;20127;-68
2020/12/05 10:27:23;;;;;;;19.15;11.88;;;;;;;12.40;50.25;99426.78;5093179;28;20051;-67
2020/12/05 10:29:50;;;;;;;19.55;11.60;;;;;;;12.24;49.98;99425.97;5053064;28;20043;-68
2020/12/05 10:32:17;;;;;;;20.38;10.93;;;;;;;11.97;50.86;99433.66;5094656;28;20052;-68
2020/12/05 10:34:43;;;;;;;19.88;12.23;;;;;;;11.65;50.90;99441.53;5092510;28;20048;-69
2020/12/05 10:37:10;;;;;;;17.88;9.05;;;;;;;11.34;51.83;99431.88;5092754;28;20169;-67
2020/12/05 10:39:37;;;;;;;17.60;9.40;;;;;;;11.10;52.43;99436.66;5092320;28;20073;-66
2020/12/05 10:42:03;;;;;;;10.95;6.72;;;;;;;10.89;52.92;99422.06;5091675;28;20123;-68
2020/12/05 10:44:29;;;;;;;18.88;10.05;;;;;;;10.75;53.38;99427.19;5092221;28;20106;-71
2020/12/05 10:46:55;;;;;;;9.60;6.80;;;;;;;10.64;53.67;99427.75;5092193;28;20056;-68
2020/12/05 10:49:22;;;;;;;17.38;10.80;;;;;;;10.51;54.02;99427.53;5092540;28;20115;-72
2020/12/05 10:51:49;;;;;;;22.77;12.90;;;;;;;10.43;54.45;99418.38;5092344;28;20052;-72
2020/12/05 10:54:16;;;;;;;40.67;22.05;;;;;;;10.39;54.75;99415.88;5091831;28;20044;-69
2020/12/05 10:56:43;;;;;;;32.47;17.45;;;;;;;10.41;54.58;99413.22;5091613;28;20162;-70
2020/12/05 10:59:10;;;;;;;28.35;14.77;;;;;;;10.41;54.81;99415.84;5091410;28;20052;-71
2020/12/05 11:01:36;;;;;;;51.03;25.58;;;;;;;10.40;55.05;99424.59;5090756;28;20105;-69
2020/12/05 11:04:03;;;;;;;36.88;18.92;;;;;;;10.45;54.90;99427.84;5091699;28;20135;-70
2020/12/05 11:06:29;;;;;;;32.33;18.20;;;;;;;10.43;55.09;99434.94;5091840;28;20048;-71
2020/12/05 11:08:56;;;;;;;26.17;13.30;;;;;;;10.46;55.08;99434.78;5091480;28;20087;-70
2020/12/05 11:11:23;;;;;;;31.08;17.98;;;;;;;10.47;55.18;99436.47;5091539;28;20109;-68
2020/12/05 11:13:50;;;;;;;23.45;13.73;;;;;;;10.54;55.17;99434.38;5091649;28;20108;-69
2020/12/05 11:16:20;;;;;;;22.85;12.23;;;;;;;10.55;55.15;99434.28;5091393;28;20072;-70
2020/12/05 11:18:47;;;;;;;31.08;15.85;;;;;;;10.57;55.19;99437.69;5090966;28;20464;-71
2020/12/05 11:21:13;;;;;;;17.38;9.55;;;;;;;10.60;55.09;99448.00;5091587;28;20054;-71
2020/12/05 11:23:40;;;;;;;18.95;9.82;;;;;;;10.62;55.29;99440.94;5091743;28;20071;-72
2020/12/05 11:26:06;;;;;;;22.23;13.02;;;;;;;10.64;55.38;99449.56;5091782;28;20040;-69
2020/12/05 11:28:32;;;;;;;24.77;13.95;;;;;;;10.69;55.46;99462.44;5091602;28;20494;-71
2020/12/05 11:30:59;;;;;;;22.73;13.57;;;;;;;10.75;55.40;99467.34;5090395;28;20131;-72
2020/12/05 11:33:25;;;;;;;19.15;11.18;;;;;;;10.84;54.95;99466.06;5091127;28;20131;-71
2020/12/05 11:35:51;;;;;;;19.45;10.82;;;;;;;10.91;55.17;99470.88;5091599;28;20226;-72